createdAt,value
2019-03-19T00:00:57.439Z,0.99823
2019-03-19T00:01:57.559Z,0.99823
2019-03-19T00:02:57.658Z,0.988159
2019-03-19T00:03:57.781Z,1.028442
2019-03-19T00:04:57.889Z,1.018372
2019-03-19T00:05:57.990Z,0.99823
2019-03-19T00:06:58.078Z,0.988159
2019-03-19T00:07:58.178Z,0.988159
2019-03-19T00:08:58.256Z,0.988159
2019-03-19T00:09:58.346Z,0.947876
2019-03-19T00:10:58.440Z,0.937805
2019-03-19T00:11:58.450Z,0.937805
2019-03-19T00:12:58.469Z,0.937805
2019-03-19T00:13:58.624Z,0.907593
2019-03-19T00:14:58.588Z,0.87738
2019-03-19T00:15:58.636Z,0.857239
2019-03-19T00:16:58.636Z,0.837097
2019-03-19T00:17:58.728Z,0.806885
2019-03-19T00:18:58.801Z,0.776672
2019-03-19T00:19:58.853Z,0.756531
2019-03-19T00:20:58.893Z,0.756531
2019-03-19T00:21:58.933Z,0.756531
2019-03-19T00:22:59.048Z,0.756531
2019-03-19T00:23:59.194Z,0.736389
2019-03-19T00:24:59.293Z,0.726318
2019-03-19T00:25:59.299Z,0.756531
2019-03-19T00:26:59.420Z,0.766602
2019-03-19T00:27:59.498Z,0.776672
2019-03-19T00:28:59.652Z,0.847168
2019-03-19T00:29:59.752Z,0.837097
2019-03-19T00:30:59.808Z,0.857239
2019-03-19T00:31:59.906Z,0.857239
2019-03-19T00:33:00.015Z,0.847168
2019-03-19T00:34:00.083Z,0.847168
2019-03-19T00:35:00.129Z,0.837097
2019-03-19T00:36:00.167Z,0.847168
2019-03-19T00:37:00.229Z,0.847168
2019-03-19T00:38:00.258Z,0.847168
2019-03-19T00:39:00.381Z,0.847168
2019-03-19T00:40:00.451Z,0.816956
2019-03-19T00:41:00.458Z,0.806885
2019-03-19T00:42:00.536Z,0.766602
2019-03-19T00:43:00.575Z,0.776672
2019-03-19T00:44:00.652Z,0.756531
2019-03-19T00:45:00.722Z,0.756531
2019-03-19T00:46:00.772Z,0.736389
2019-03-19T00:47:00.807Z,0.696106
2019-03-19T00:48:00.850Z,0.696106
2019-03-19T00:49:00.881Z,0.675964
2019-03-19T00:50:00.982Z,0.655823
2019-03-19T00:51:01.025Z,0.635681
2019-03-19T00:52:01.084Z,0.62561
2019-03-19T00:53:01.155Z,0.605469
2019-03-19T00:54:01.265Z,0.555115
2019-03-19T00:55:01.264Z,0.524902
2019-03-19T00:56:01.383Z,0.524902
2019-03-19T00:57:01.484Z,0.514832
2019-03-19T00:58:01.591Z,0.49469
2019-03-19T00:59:01.634Z,0.484619
2019-03-19T01:00:02.741Z,0.474548
2019-03-19T01:01:01.863Z,0.454407
2019-03-19T01:02:01.918Z,0.444336
2019-03-19T01:03:01.956Z,0.444336
2019-03-19T01:04:01.994Z,0.424194
2019-03-19T01:05:02.058Z,0.404053
2019-03-19T01:06:02.079Z,0.404053
2019-03-19T01:07:02.127Z,0.393982
2019-03-19T01:08:02.157Z,0.393982
2019-03-19T01:09:02.231Z,0.36377
2019-03-19T01:10:02.253Z,0.343628
2019-03-19T01:11:03.272Z,0.37384
2019-03-19T01:12:02.310Z,0.37384
2019-03-19T01:13:02.356Z,0.36377
2019-03-19T01:14:02.410Z,0.343628
2019-03-19T01:15:02.509Z,0.313416
2019-03-19T01:16:02.540Z,0.313416
2019-03-19T01:17:02.576Z,0.303345
2019-03-19T01:18:02.609Z,0.303345
2019-03-19T01:19:02.660Z,0.293274
2019-03-19T01:20:02.754Z,0.273132
2019-03-19T01:21:02.803Z,0.293274
2019-03-19T01:22:02.873Z,0.273132
2019-03-19T01:23:02.940Z,0.273132
2019-03-19T01:24:02.945Z,0.293274
2019-03-19T01:25:03.032Z,0.273132
2019-03-19T01:26:03.083Z,0.273132
2019-03-19T01:27:03.120Z,0.263062
2019-03-19T01:28:03.166Z,0.232849
2019-03-19T01:29:03.205Z,0.202637
2019-03-19T01:30:03.288Z,0.202637
2019-03-19T01:31:03.328Z,0.202637
2019-03-19T01:32:03.391Z,0.182495
2019-03-19T01:33:03.432Z,0.182495
2019-03-19T01:34:03.479Z,0.162354
2019-03-19T01:35:03.541Z,0.182495
2019-03-19T01:36:03.579Z,0.162354
2019-03-19T01:37:03.617Z,0.182495
2019-03-19T01:38:03.652Z,0.182495
2019-03-19T01:39:03.713Z,0.162354
2019-03-19T01:40:03.812Z,0.162354
2019-03-19T01:41:03.834Z,0.152283
2019-03-19T01:42:03.880Z,0.152283
2019-03-19T01:43:03.901Z,0.132141
2019-03-19T01:44:03.944Z,0.132141
2019-03-19T01:45:04.042Z,0.12207
2019-03-19T01:46:04.143Z,0.091858
2019-03-19T01:47:04.182Z,0.091858
2019-03-19T01:48:04.199Z,0.081787
2019-03-19T01:49:04.245Z,0.081787
2019-03-19T01:50:04.347Z,0.061646
2019-03-19T01:51:04.361Z,0.081787
2019-03-19T01:52:04.453Z,0.091858
2019-03-19T01:53:04.422Z,0.091858
2019-03-19T01:54:04.452Z,0.081787
2019-03-19T01:55:04.504Z,0.061646
2019-03-19T01:56:05.299Z,0.061646
2019-03-19T01:57:04.539Z,0.061646
2019-03-19T01:58:04.578Z,0.061646
2019-03-19T01:59:04.613Z,0.061646
2019-03-19T02:00:04.667Z,0.061646
2019-03-19T02:01:04.701Z,0.051575
2019-03-19T02:02:04.719Z,0.051575
2019-03-19T02:03:04.750Z,0.021362
2019-03-19T02:04:04.766Z,0.011292
2019-03-19T02:05:04.843Z,0.021362
2019-03-19T02:06:04.955Z,0.001221
2019-03-19T02:07:05.003Z,-0.018921
2019-03-19T02:08:05.103Z,-0.028992
2019-03-19T02:09:05.196Z,-0.049133
2019-03-19T02:10:05.334Z,-0.069275
2019-03-19T02:11:05.429Z,-0.059204
2019-03-19T02:12:05.549Z,-0.069275
2019-03-19T02:13:05.650Z,-0.069275
2019-03-19T02:14:05.762Z,-0.089417
2019-03-19T02:15:05.913Z,-0.089417
2019-03-19T02:16:06.011Z,-0.089417
2019-03-19T02:17:06.120Z,-0.099487
2019-03-19T02:18:06.227Z,-0.099487
2019-03-19T02:19:06.352Z,-0.089417
2019-03-19T02:20:06.474Z,-0.089417
2019-03-19T02:21:06.573Z,-0.119629
2019-03-19T02:22:06.671Z,-0.119629
2019-03-19T02:23:06.782Z,-0.1297
2019-03-19T02:24:06.878Z,-0.1297
2019-03-19T02:25:07.014Z,-0.149841
2019-03-19T02:26:15.813Z,-0.169983
2019-03-19T02:27:07.153Z,-0.169983
2019-03-19T02:28:07.271Z,-0.149841
2019-03-19T02:29:07.377Z,-0.149841
2019-03-19T02:30:07.499Z,-0.099487
2019-03-19T02:31:07.602Z,-0.089417
2019-03-19T02:32:07.699Z,-0.089417
2019-03-19T02:33:07.801Z,-0.089417
2019-03-19T02:34:07.940Z,-0.089417
2019-03-19T02:35:08.108Z,-0.089417
2019-03-19T02:36:08.191Z,-0.099487
2019-03-19T02:37:08.298Z,-0.119629
2019-03-19T02:38:08.399Z,-0.1297
2019-03-19T02:39:08.517Z,-0.149841
2019-03-19T02:40:08.692Z,-0.169983
2019-03-19T02:41:08.626Z,-0.180054
2019-03-19T02:42:08.749Z,-0.180054
2019-03-19T02:43:08.843Z,-0.200195
2019-03-19T02:44:09.922Z,-0.210266
2019-03-19T02:45:09.035Z,-0.210266
2019-03-19T02:46:09.158Z,-0.240479
2019-03-19T02:47:09.273Z,-0.240479
2019-03-19T02:48:09.384Z,-0.26062
2019-03-19T02:49:09.491Z,-0.26062
2019-03-19T02:50:09.616Z,-0.26062
2019-03-19T02:51:09.720Z,-0.26062
2019-03-19T02:52:09.825Z,-0.270691
2019-03-19T02:53:09.932Z,-0.270691
2019-03-19T02:54:10.038Z,-0.270691
2019-03-19T02:55:10.186Z,-0.26062
2019-03-19T02:56:10.305Z,-0.26062
2019-03-19T02:57:11.366Z,-0.26062
2019-03-19T02:58:10.477Z,-0.270691
2019-03-19T02:59:10.576Z,-0.26062
2019-03-19T03:00:10.751Z,-0.26062
2019-03-19T03:01:10.865Z,-0.26062
2019-03-19T03:02:10.957Z,-0.270691
2019-03-19T03:03:11.156Z,-0.26062
2019-03-19T03:04:11.202Z,-0.240479
2019-03-19T03:05:11.335Z,-0.210266
2019-03-19T03:06:12.425Z,-0.149841
2019-03-19T03:07:11.527Z,-0.049133
2019-03-19T03:08:11.630Z,0.091858
2019-03-19T03:09:11.746Z,0.162354
2019-03-19T03:10:11.874Z,0.202637
2019-03-19T03:11:11.844Z,0.303345
2019-03-19T03:12:11.949Z,0.36377
2019-03-19T03:13:12.057Z,0.36377
2019-03-19T03:14:12.168Z,0.333557
2019-03-19T03:15:12.278Z,0.293274
2019-03-19T03:16:12.327Z,0.24292
2019-03-19T03:17:12.449Z,0.232849
2019-03-19T03:18:12.545Z,0.202637
2019-03-19T03:19:13.642Z,0.202637
2019-03-19T03:20:12.753Z,0.192566
2019-03-19T03:21:12.749Z,0.162354
2019-03-19T03:22:12.847Z,0.132141
2019-03-19T03:23:12.941Z,0.112
2019-03-19T03:24:13.039Z,0.091858
2019-03-19T03:25:13.151Z,0.061646
2019-03-19T03:26:13.272Z,0.061646
2019-03-19T03:27:13.372Z,0.081787
2019-03-19T03:28:13.466Z,0.081787
2019-03-19T03:29:13.590Z,0.081787
2019-03-19T03:30:13.707Z,0.12207
2019-03-19T03:31:13.683Z,0.112
2019-03-19T03:32:13.793Z,0.132141
2019-03-19T03:33:13.894Z,0.152283
2019-03-19T03:34:14.008Z,0.132141
2019-03-19T03:35:14.094Z,0.112
2019-03-19T03:36:14.235Z,0.081787
2019-03-19T03:37:14.337Z,0.021362
2019-03-19T03:38:14.432Z,0.011292
2019-03-19T03:39:14.535Z,0.001221
2019-03-19T03:40:14.621Z,-0.049133
2019-03-19T03:41:14.776Z,-0.059204
2019-03-19T03:42:14.872Z,-0.089417
2019-03-19T03:43:15.965Z,-0.099487
2019-03-19T03:44:15.057Z,-0.1297
2019-03-19T03:45:15.159Z,-0.1297
2019-03-19T03:46:15.302Z,-0.1297
2019-03-19T03:47:15.403Z,-0.169983
2019-03-19T03:48:15.502Z,-0.180054
2019-03-19T03:49:15.603Z,-0.149841
2019-03-19T03:50:15.715Z,-0.149841
2019-03-19T03:51:15.719Z,-0.149841
2019-03-19T03:52:15.816Z,-0.099487
2019-03-19T03:53:15.950Z,-0.089417
2019-03-19T03:54:16.045Z,-0.069275
2019-03-19T03:55:16.157Z,-0.049133
2019-03-19T03:56:17.285Z,-0.018921
2019-03-19T03:57:16.388Z,0.021362
2019-03-19T03:58:16.485Z,0.061646
2019-03-19T03:59:16.583Z,0.051575
2019-03-19T04:00:16.687Z,0.001221
2019-03-19T04:01:16.822Z,-0.028992
2019-03-19T04:02:16.918Z,-0.059204
2019-03-19T04:03:17.013Z,-0.069275
2019-03-19T04:04:17.150Z,-0.119629
2019-03-19T04:05:17.244Z,-0.119629
2019-03-19T04:06:17.408Z,-0.169983
2019-03-19T04:07:17.529Z,-0.200195
2019-03-19T04:08:17.637Z,-0.180054
2019-03-19T04:09:17.736Z,-0.149841
2019-03-19T04:10:17.858Z,-0.169983
2019-03-19T04:11:17.965Z,-0.169983
2019-03-19T04:12:18.084Z,-0.169983
2019-03-19T04:13:18.191Z,-0.1297
2019-03-19T04:14:18.318Z,-0.119629
2019-03-19T04:15:18.462Z,-0.119629
2019-03-19T04:16:18.620Z,-0.089417
2019-03-19T04:17:18.731Z,-0.059204
2019-03-19T04:18:18.822Z,-0.069275
2019-03-19T04:19:18.917Z,-0.099487
2019-03-19T04:20:19.018Z,-0.119629
2019-03-19T04:21:19.175Z,-0.149841
2019-03-19T04:22:19.255Z,-0.180054
2019-03-19T04:23:19.372Z,-0.210266
2019-03-19T04:24:19.508Z,-0.26062
2019-03-19T04:25:19.599Z,-0.270691
2019-03-19T04:26:19.751Z,-0.310974
2019-03-19T04:27:19.703Z,-0.361328
2019-03-19T04:28:19.806Z,-0.361328
2019-03-19T04:29:19.900Z,-0.38147
2019-03-19T04:30:20.008Z,-0.421753
2019-03-19T04:31:20.167Z,-0.421753
2019-03-19T04:32:20.107Z,-0.411682
2019-03-19T04:33:20.219Z,-0.411682
2019-03-19T04:34:21.327Z,-0.361328
2019-03-19T04:35:20.478Z,-0.331116
2019-03-19T04:36:20.607Z,-0.310974
2019-03-19T04:37:20.585Z,-0.210266
2019-03-19T04:38:20.676Z,-0.1297
2019-03-19T04:39:20.836Z,-0.069275
2019-03-19T04:40:20.935Z,-0.049133
2019-03-19T04:41:21.061Z,-0.049133
2019-03-19T04:42:21.138Z,-0.059204
2019-03-19T04:43:21.265Z,-0.099487
2019-03-19T04:44:21.356Z,-0.149841
2019-03-19T04:45:21.485Z,-0.169983
2019-03-19T04:46:21.603Z,-0.200195
2019-03-19T04:47:21.715Z,-0.240479
2019-03-19T04:48:21.808Z,-0.280762
2019-03-19T04:49:21.905Z,-0.270691
2019-03-19T04:50:21.998Z,-0.310974
2019-03-19T04:51:22.129Z,-0.331116
2019-03-19T04:52:22.228Z,-0.38147
2019-03-19T04:53:24.198Z,-0.411682
2019-03-19T04:54:22.432Z,-0.421753
2019-03-19T04:55:22.512Z,-0.462036
2019-03-19T04:56:22.635Z,-0.462036
2019-03-19T04:57:26.910Z,-0.492249
2019-03-19T04:58:22.834Z,-0.482178
2019-03-19T04:59:22.934Z,-0.482178
2019-03-19T05:00:23.038Z,-0.482178
2019-03-19T05:01:23.167Z,-0.482178
2019-03-19T05:02:23.270Z,-0.441895
2019-03-19T05:03:23.404Z,-0.361328
2019-03-19T05:04:23.497Z,-0.310974
2019-03-19T05:05:23.596Z,-0.310974
2019-03-19T05:06:23.745Z,-0.310974
2019-03-19T05:07:23.865Z,-0.310974
2019-03-19T05:08:23.974Z,-0.280762
2019-03-19T05:09:24.086Z,-0.169983
2019-03-19T05:10:24.237Z,-0.099487
2019-03-19T05:11:24.391Z,-0.059204
2019-03-19T05:12:24.504Z,0.001221
2019-03-19T05:13:24.625Z,0.011292
2019-03-19T05:14:24.726Z,0.061646
2019-03-19T05:15:24.845Z,0.081787
2019-03-19T05:16:24.994Z,0.091858
2019-03-19T05:17:25.099Z,0.132141
2019-03-19T05:18:25.188Z,0.152283
2019-03-19T05:19:25.290Z,0.112
2019-03-19T05:20:25.393Z,0.061646
2019-03-19T05:21:25.522Z,0.021362
2019-03-19T05:22:25.624Z,0.021362
2019-03-19T05:23:25.733Z,0.051575
2019-03-19T05:24:25.841Z,0.051575
2019-03-19T05:25:25.956Z,0.021362
2019-03-19T05:26:26.087Z,0.021362
2019-03-19T05:27:36.726Z,0.011292
2019-03-19T05:28:26.118Z,0.011292
2019-03-19T05:29:26.229Z,-0.018921
2019-03-19T05:30:26.329Z,-0.059204
2019-03-19T05:31:26.393Z,-0.099487
2019-03-19T05:32:26.432Z,-0.149841
2019-03-19T05:33:26.497Z,-0.169983
2019-03-19T05:34:26.546Z,-0.200195
2019-03-19T05:35:26.632Z,-0.210266
2019-03-19T05:36:26.760Z,-0.240479
2019-03-19T05:37:26.831Z,-0.280762
2019-03-19T05:38:27.863Z,-0.310974
2019-03-19T05:39:26.891Z,-0.310974
2019-03-19T05:40:26.930Z,-0.310974
2019-03-19T05:41:26.970Z,-0.300903
2019-03-19T05:42:27.066Z,-0.26062
2019-03-19T05:43:27.113Z,-0.210266
2019-03-19T05:44:27.141Z,-0.149841
2019-03-19T05:45:27.187Z,-0.149841
2019-03-19T05:46:27.257Z,-0.1297
2019-03-19T05:47:36.667Z,-0.149841
2019-03-19T05:48:28.487Z,-0.149841
2019-03-19T05:49:27.549Z,-0.169983
2019-03-19T05:50:27.642Z,-0.169983
2019-03-19T05:51:27.645Z,-0.1297
2019-03-19T05:52:27.745Z,0.011292
2019-03-19T05:53:27.835Z,0.112
2019-03-19T05:54:27.892Z,0.112
2019-03-19T05:55:27.941Z,0.12207
2019-03-19T05:56:27.983Z,0.162354
2019-03-19T05:57:28.053Z,0.202637
2019-03-19T05:58:29.075Z,0.24292
2019-03-19T05:59:28.120Z,0.293274
2019-03-19T06:00:28.153Z,0.303345
2019-03-19T06:01:28.198Z,0.273132
2019-03-19T06:02:28.298Z,0.293274
2019-03-19T06:03:28.421Z,0.303345
2019-03-19T06:04:28.457Z,0.303345
2019-03-19T06:05:28.504Z,0.293274
2019-03-19T06:06:28.541Z,0.273132
2019-03-19T06:07:28.640Z,0.263062
2019-03-19T06:08:28.685Z,0.24292
2019-03-19T06:09:28.726Z,0.24292
2019-03-19T06:10:28.780Z,0.232849
2019-03-19T06:11:28.829Z,0.263062
2019-03-19T06:12:28.876Z,0.303345
2019-03-19T06:13:28.955Z,0.36377
2019-03-19T06:14:29.005Z,0.404053
2019-03-19T06:15:29.082Z,0.424194
2019-03-19T06:16:29.152Z,0.444336
2019-03-19T06:17:29.247Z,0.474548
2019-03-19T06:18:34.878Z,0.514832
2019-03-19T06:19:29.304Z,0.524902
2019-03-19T06:20:29.344Z,0.555115
2019-03-19T06:21:29.392Z,0.585327
2019-03-19T06:22:29.531Z,0.605469
2019-03-19T06:23:29.563Z,0.585327
2019-03-19T06:24:29.604Z,0.555115
2019-03-19T06:25:29.661Z,0.545044
2019-03-19T06:26:29.710Z,0.545044
2019-03-19T06:27:29.788Z,0.555115
2019-03-19T06:28:29.860Z,0.555115
2019-03-19T06:29:29.937Z,0.585327
2019-03-19T06:30:29.984Z,0.585327
2019-03-19T06:31:30.050Z,0.62561
2019-03-19T06:32:30.129Z,0.665894
2019-03-19T06:33:30.168Z,0.736389
2019-03-19T06:34:30.257Z,0.776672
2019-03-19T06:35:30.314Z,0.816956
2019-03-19T06:36:30.350Z,0.847168
2019-03-19T06:37:30.444Z,0.87738
2019-03-19T06:38:30.501Z,0.87738
2019-03-19T06:39:30.550Z,0.917664
2019-03-19T06:40:30.597Z,0.917664
2019-03-19T06:41:30.654Z,0.947876
2019-03-19T06:42:30.716Z,0.947876
2019-03-19T06:43:30.768Z,0.988159
2019-03-19T06:44:30.809Z,0.988159
2019-03-19T06:45:30.846Z,1.018372
2019-03-19T06:46:30.890Z,1.068726
2019-03-19T06:47:30.960Z,1.068726
2019-03-19T06:48:30.996Z,1.098938
2019-03-19T06:49:31.045Z,1.12915
2019-03-19T06:50:31.124Z,1.159363
2019-03-19T06:51:32.119Z,1.199646
2019-03-19T06:52:31.186Z,1.209717
2019-03-19T06:53:31.229Z,1.239929
2019-03-19T06:54:31.281Z,1.270142
2019-03-19T06:55:31.323Z,1.280212
2019-03-19T06:56:31.400Z,1.310425
2019-03-19T06:57:39.054Z,1.360779
2019-03-19T06:58:31.526Z,1.390991
2019-03-19T06:59:31.571Z,1.451416
2019-03-19T07:00:31.611Z,1.50177
2019-03-19T07:01:31.659Z,1.521912
2019-03-19T07:02:31.723Z,1.531982
2019-03-19T07:03:31.787Z,1.572266
2019-03-19T07:04:31.866Z,1.582336
2019-03-19T07:05:31.919Z,1.612549
2019-03-19T07:06:32.963Z,1.642761
2019-03-19T07:07:32.050Z,1.672974
2019-03-19T07:08:32.096Z,1.703186
2019-03-19T07:09:32.150Z,1.763611
2019-03-19T07:10:32.183Z,1.813965
2019-03-19T07:11:32.231Z,1.864319
2019-03-19T07:12:32.343Z,1.934814
2019-03-19T07:13:32.386Z,1.995239
2019-03-19T07:14:32.434Z,2.025452
2019-03-19T07:15:32.489Z,2.065735
2019-03-19T07:16:32.547Z,2.116089
2019-03-19T07:17:32.621Z,2.176514
2019-03-19T07:18:33.786Z,2.186584
2019-03-19T07:19:32.731Z,2.226868
2019-03-19T07:20:32.815Z,2.25708
2019-03-19T07:21:32.863Z,2.327576
2019-03-19T07:22:32.910Z,2.388
2019-03-19T07:23:33.074Z,2.428284
2019-03-19T07:24:33.106Z,2.458496
2019-03-19T07:25:34.144Z,2.50885
2019-03-19T07:26:33.177Z,2.50885
2019-03-19T07:27:33.231Z,2.549133
2019-03-19T07:28:33.335Z,2.589417
2019-03-19T07:29:33.383Z,2.619629
2019-03-19T07:30:33.435Z,2.680054
2019-03-19T07:31:33.466Z,2.700195
2019-03-19T07:32:33.513Z,2.720337
2019-03-19T07:33:33.618Z,2.730408
2019-03-19T07:34:33.657Z,2.790833
2019-03-19T07:35:34.702Z,2.871399
2019-03-19T07:36:33.751Z,2.88147
2019-03-19T07:37:33.778Z,2.911682
2019-03-19T07:38:33.891Z,2.941895
2019-03-19T07:39:33.922Z,2.972107
2019-03-19T07:40:33.969Z,3.01239
2019-03-19T07:41:34.006Z,3.062744
2019-03-19T07:42:34.043Z,3.113098
2019-03-19T07:43:34.142Z,3.183594
2019-03-19T07:44:34.194Z,3.244019
2019-03-19T07:45:34.240Z,3.274231
2019-03-19T07:46:34.333Z,3.314514
2019-03-19T07:47:34.370Z,3.344727
2019-03-19T07:48:34.467Z,3.374939
2019-03-19T07:49:34.500Z,3.475647
2019-03-19T07:50:34.565Z,3.51593
2019-03-19T07:51:34.604Z,3.556213
2019-03-19T07:52:34.643Z,3.606567
2019-03-19T07:53:34.725Z,3.63678
2019-03-19T07:54:34.779Z,3.63678
2019-03-19T07:55:34.820Z,3.63678
2019-03-19T07:56:34.861Z,3.727417
2019-03-19T07:57:34.928Z,3.7677
2019-03-19T07:58:44.673Z,3.838196
2019-03-19T07:59:35.047Z,3.858337
2019-03-19T08:00:35.123Z,3.908691
2019-03-19T08:01:35.192Z,3.938904
2019-03-19T08:02:35.215Z,3.948975
2019-03-19T08:03:35.273Z,3.989258
2019-03-19T08:04:35.333Z,3.999329
2019-03-19T08:05:35.390Z,4.069824
2019-03-19T08:06:35.433Z,4.100037
2019-03-19T08:07:35.472Z,4.130249
2019-03-19T08:08:35.557Z,4.160461
2019-03-19T08:09:35.691Z,4.210815
2019-03-19T08:10:35.686Z,4.241028
2019-03-19T08:11:35.745Z,4.281311
2019-03-19T08:12:36.324Z,4.361877
2019-03-19T08:13:35.914Z,4.402161
2019-03-19T08:14:35.982Z,4.452515
2019-03-19T08:15:36.025Z,4.502869
2019-03-19T08:16:36.072Z,4.533081
2019-03-19T08:17:36.156Z,4.563293
2019-03-19T08:18:36.331Z,4.533081
2019-03-19T08:19:36.279Z,4.563293
2019-03-19T08:20:36.318Z,4.613647
2019-03-19T08:21:36.384Z,4.684143
2019-03-19T08:22:36.447Z,4.744568
2019-03-19T08:23:36.537Z,5.187683
2019-03-19T08:24:36.607Z,6.335754
2019-03-19T08:25:36.670Z,7.191772
2019-03-19T08:26:36.730Z,7.775879
2019-03-19T08:27:36.765Z,8.450623
2019-03-19T08:28:36.840Z,9.367065
2019-03-19T08:29:37.879Z,9.991455
2019-03-19T08:30:36.927Z,10.817261
2019-03-19T08:31:36.961Z,11.492004
2019-03-19T08:32:37.056Z,12.227173
2019-03-19T08:33:37.150Z,13.083191
2019-03-19T08:34:38.188Z,13.355103
2019-03-19T08:35:38.078Z,13.516235
2019-03-19T08:36:37.307Z,13.516235
2019-03-19T08:37:37.369Z,13.637085
2019-03-19T08:38:37.480Z,13.19397
2019-03-19T08:39:37.558Z,13.083191
2019-03-19T08:40:37.637Z,13.083191
2019-03-19T08:41:37.688Z,13.022766
2019-03-19T08:42:37.732Z,12.509155
2019-03-19T08:43:37.796Z,11.894836
2019-03-19T08:44:38.827Z,11.68335
2019-03-19T08:45:37.862Z,11.451721
2019-03-19T08:46:37.918Z,11.411438
2019-03-19T08:47:38.506Z,11.351013
2019-03-19T08:48:38.063Z,10.605774
2019-03-19T08:49:38.103Z,10.505066
2019-03-19T08:50:38.144Z,10.1828
2019-03-19T08:51:38.210Z,10.30365
2019-03-19T08:52:38.303Z,10.525208
2019-03-19T08:53:38.387Z,10.505066
2019-03-19T08:54:38.441Z,10.253296
2019-03-19T08:55:38.554Z,9.80011
2019-03-19T08:56:38.626Z,9.477844
2019-03-19T08:57:38.680Z,9.437561
2019-03-19T08:58:38.781Z,9.719543
2019-03-19T08:59:38.846Z,10.001526
2019-03-19T09:00:38.935Z,10.092163
2019-03-19T09:01:38.973Z,9.951172
2019-03-19T09:02:39.028Z,9.699402
2019-03-19T09:03:39.067Z,9.638977
2019-03-19T09:04:39.178Z,9.870605
2019-03-19T09:05:39.222Z,9.920959
2019-03-19T09:06:39.266Z,9.699402
2019-03-19T09:07:39.308Z,9.538269
2019-03-19T09:08:39.351Z,9.417419
2019-03-19T09:09:39.486Z,9.558411
2019-03-19T09:10:39.569Z,9.820251
2019-03-19T09:11:39.623Z,10.122375
2019-03-19T09:12:39.968Z,10.364075
2019-03-19T09:13:39.823Z,10.384216
2019-03-19T09:14:40.915Z,10.031738
2019-03-19T09:15:42.246Z,9.900818
2019-03-19T09:16:40.010Z,9.900818
2019-03-19T09:17:40.057Z,9.920959
2019-03-19T09:18:40.101Z,10.152588
2019-03-19T09:19:40.195Z,10.202942
2019-03-19T09:20:40.229Z,9.538269
2019-03-19T09:21:41.254Z,9.216003
2019-03-19T09:22:40.289Z,9.125366
2019-03-19T09:23:40.356Z,9.669189
2019-03-19T09:24:40.471Z,10.30365
2019-03-19T09:25:40.511Z,10.494995
2019-03-19T09:26:40.552Z,11.008606
2019-03-19T09:27:40.594Z,11.119385
2019-03-19T09:28:40.659Z,10.887756
2019-03-19T09:29:40.757Z,11.119385
2019-03-19T09:30:40.799Z,11.492004
2019-03-19T09:31:40.892Z,11.743774
2019-03-19T09:32:40.951Z,12.06604
2019-03-19T09:33:41.002Z,12.277527
2019-03-19T09:34:41.091Z,11.94519
2019-03-19T09:35:41.152Z,10.897827
2019-03-19T09:36:41.195Z,10.494995
2019-03-19T09:37:44.662Z,10.122375
2019-03-19T09:38:42.364Z,9.900818
2019-03-19T09:39:41.428Z,10.001526
2019-03-19T09:40:41.477Z,9.820251
2019-03-19T09:41:41.511Z,9.699402
2019-03-19T09:42:41.559Z,9.558411
2019-03-19T09:43:41.614Z,8.994446
2019-03-19T09:44:41.672Z,8.531189
2019-03-19T09:45:42.687Z,8.823242
2019-03-19T09:46:41.719Z,9.145508
2019-03-19T09:47:41.766Z,9.336853
2019-03-19T09:48:41.804Z,9.638977
2019-03-19T09:49:41.920Z,10.152588
2019-03-19T09:50:41.969Z,10.615845
2019-03-19T09:51:42.004Z,10.93811
2019-03-19T09:52:42.051Z,11.048889
2019-03-19T09:53:42.091Z,11.149597
2019-03-19T09:54:42.184Z,11.159668
2019-03-19T09:55:42.269Z,11.552429
2019-03-19T09:56:42.312Z,11.854553
2019-03-19T09:57:42.347Z,12.247314
2019-03-19T09:58:42.388Z,12.811279
2019-03-19T09:59:44.486Z,12.932129
2019-03-19T10:00:42.526Z,11.884766
2019-03-19T10:01:42.578Z,11.31073
2019-03-19T10:02:42.657Z,11.159668
2019-03-19T10:03:42.692Z,11.260376
2019-03-19T10:04:42.776Z,11.199951
2019-03-19T10:05:42.823Z,11.048889
2019-03-19T10:06:42.863Z,10.887756
2019-03-19T10:07:43.908Z,10.978394
2019-03-19T10:08:42.948Z,10.837402
2019-03-19T10:09:43.021Z,10.897827
2019-03-19T10:10:43.110Z,10.968323
2019-03-19T10:11:43.103Z,10.93811
2019-03-19T10:12:44.149Z,10.897827
2019-03-19T10:13:43.188Z,10.706482
2019-03-19T10:14:43.254Z,10.313721
2019-03-19T10:15:43.306Z,10.152588
2019-03-19T10:16:43.373Z,9.900818
2019-03-19T10:17:43.432Z,10.202942
2019-03-19T10:18:43.470Z,9.900818
2019-03-19T10:19:43.548Z,9.578552
2019-03-19T10:20:43.594Z,9.467773
2019-03-19T10:21:43.638Z,9.54834
2019-03-19T10:22:43.692Z,9.820251
2019-03-19T10:23:43.729Z,10.202942
2019-03-19T10:24:43.809Z,10.394287
2019-03-19T10:25:43.857Z,10.93811
2019-03-19T10:26:43.914Z,11.260376
2019-03-19T10:27:43.978Z,11.411438
2019-03-19T10:28:44.022Z,11.371155
2019-03-19T10:29:44.121Z,11.602783
2019-03-19T10:30:44.171Z,11.763916
2019-03-19T10:31:44.206Z,11.743774
2019-03-19T10:32:44.254Z,11.411438
2019-03-19T10:33:44.315Z,10.978394
2019-03-19T10:34:44.434Z,10.897827
2019-03-19T10:35:44.502Z,10.605774
2019-03-19T10:36:44.594Z,10.233154
2019-03-19T10:37:45.702Z,10.05188
2019-03-19T10:38:44.755Z,9.759827
2019-03-19T10:39:44.835Z,9.487915
2019-03-19T10:40:44.903Z,9.618835
2019-03-19T10:41:44.939Z,9.941101
2019-03-19T10:42:44.985Z,10.343933
2019-03-19T10:43:45.092Z,10.68634
2019-03-19T10:44:45.189Z,10.897827
2019-03-19T10:45:45.240Z,11.230164
2019-03-19T10:46:45.348Z,11.43158
2019-03-19T10:47:45.416Z,11.743774
2019-03-19T10:48:45.476Z,12.388306
2019-03-19T10:49:45.556Z,13.083191
2019-03-19T10:50:45.653Z,13.596802
2019-03-19T10:51:45.694Z,13.999634
2019-03-19T10:52:45.806Z,14.029846
2019-03-19T10:53:45.861Z,13.707581
2019-03-19T10:54:45.903Z,13.939209
2019-03-19T10:55:46.025Z,14.039917
2019-03-19T10:56:46.083Z,14.120483
2019-03-19T10:57:46.141Z,14.070129
2019-03-19T10:58:46.236Z,13.888855
2019-03-19T10:59:49.233Z,13.818359
2019-03-19T11:00:46.448Z,13.999634
2019-03-19T11:01:46.485Z,13.969421
2019-03-19T11:02:46.596Z,14.231262
2019-03-19T11:03:46.672Z,14.33197
2019-03-19T11:04:46.728Z,13.979492
2019-03-19T11:05:46.709Z,14.221191
2019-03-19T11:06:46.772Z,14.362183
2019-03-19T11:07:46.844Z,14.70459
2019-03-19T11:08:46.923Z,14.664307
2019-03-19T11:09:46.991Z,14.120483
2019-03-19T11:10:47.096Z,13.496094
2019-03-19T11:11:47.153Z,13.163757
2019-03-19T11:12:47.234Z,13.133545
2019-03-19T11:13:47.292Z,13.536377
2019-03-19T11:14:47.381Z,13.667297
2019-03-19T11:15:47.483Z,13.123474
2019-03-19T11:16:47.546Z,12.932129
2019-03-19T11:17:47.625Z,13.012695
2019-03-19T11:18:47.673Z,12.801208
2019-03-19T11:19:47.737Z,12.619934
2019-03-19T11:20:47.857Z,12.952271
2019-03-19T11:21:47.923Z,13.113403
2019-03-19T11:22:47.992Z,13.173828
2019-03-19T11:23:48.035Z,13.204041
2019-03-19T11:24:48.107Z,13.052979
2019-03-19T11:25:54.280Z,12.811279
2019-03-19T11:26:48.262Z,12.9422
2019-03-19T11:27:48.330Z,13.365173
2019-03-19T11:28:48.320Z,13.455811
2019-03-19T11:29:48.416Z,13.415527
2019-03-19T11:30:48.447Z,13.083191
2019-03-19T11:31:48.489Z,12.801208
2019-03-19T11:32:48.523Z,12.19696
2019-03-19T11:33:48.616Z,12.227173
2019-03-19T11:34:48.693Z,12.56958
2019-03-19T11:35:48.766Z,12.7005
2019-03-19T11:36:57.356Z,12.499084
2019-03-19T11:37:48.862Z,12.781067
2019-03-19T11:38:48.936Z,13.163757
2019-03-19T11:39:48.998Z,12.992554